Time;durP1;ratioP1;P1;durP2;ratioP2;P2;SDS_P1;SDS_P2;PMS_P1;PMS_P2;Temp;Humidity;BMP_temperature;BMP_pressure;BME280_temperature;BME280_humidity;BME280_pressure;Samples;Min_cycle;Max_cycle;Signal;HPM_P1;HPM_P2
2021/08/30 00:01:55;;;;;;;10.88;7.53;;;12.10;99.90;;;;;;5086077;28;20060;-67
2021/08/30 00:04:21;;;;;;;9.73;6.78;;;12.10;99.90;;;;;;5093971;28;20040;-67
2021/08/30 00:06:48;;;;;;;15.60;8.70;;;12.10;99.90;;;;;;5093776;28;20464;-67
2021/08/30 00:09:15;;;;;;;12.30;7.68;;;12.00;99.90;;;;;;5093160;28;20127;-67
2021/08/30 00:11:41;;;;;;;14.15;8.95;;;;;;;;;;5075677;28;20033;-67
2021/08/30 00:14:07;;;;;;;17.40;9.23;;;12.00;99.90;;;;;;5075598;28;20020;-66
2021/08/30 00:16:33;;;;;;;14.43;9.48;;;12.00;99.90;;;;;;5093458;28;20502;-66
2021/08/30 00:19:06;;;;;;;14.18;7.28;;;12.00;99.90;;;;;;5093705;28;20028;-67
2021/08/30 00:21:32;;;;;;;16.50;7.70;;;12.00;99.90;;;;;;5093456;28;20054;-66
2021/08/30 00:23:58;;;;;;;21.80;9.48;;;12.00;99.90;;;;;;5093656;28;20353;-67
2021/08/30 00:26:24;;;;;;;15.75;8.93;;;12.00;99.90;;;;;;5093498;28;20034;-66
2021/08/30 00:28:50;;;;;;;13.98;8.60;;;11.90;99.90;;;;;;5075077;28;20055;-66
2021/08/30 00:31:16;;;;;;;14.35;9.25;;;11.90;99.90;;;;;;5093133;28;20020;-66
2021/08/30 00:33:42;;;;;;;14.82;10.00;;;11.90;99.90;;;;;;5093500;28;20020;-66
2021/08/30 00:36:08;;;;;;;13.13;9.00;;;11.90;99.90;;;;;;5093413;28;20448;-66
2021/08/30 00:38:34;;;;;;;20.60;9.73;;;11.90;99.90;;;;;;5093493;28;20036;-66
2021/08/30 00:41:00;;;;;;;12.20;7.93;;;12.00;99.90;;;;;;5074983;28;20035;-67
2021/08/30 00:43:26;;;;;;;13.82;8.88;;;12.00;99.90;;;;;;5093636;28;20368;-66
2021/08/30 00:45:52;;;;;;;17.65;9.73;;;11.90;99.90;;;;;;5075095;28;20021;-66
2021/08/30 00:48:19;;;;;;;13.00;7.85;;;11.90;99.90;;;;;;5092934;28;20032;-66
2021/08/30 00:50:45;;;;;;;11.20;8.10;;;11.90;99.90;;;;;;5092967;28;20074;-66
2021/08/30 00:53:11;;;;;;;11.90;7.50;;;;;;;;;;5093265;28;20024;-66
2021/08/30 00:55:38;;;;;;;14.43;7.93;;;;;;;;;;5093213;28;20056;-66
2021/08/30 00:58:04;;;;;;;11.65;7.50;;;;;;;;;;5093179;28;20077;-67
2021/08/30 01:00:30;;;;;;;11.02;7.10;;;;;;;;;;5092748;28;20071;-67
2021/08/30 01:02:56;;;;;;;12.73;7.97;;;;;;;;;;5093134;28;20043;-66
2021/08/30 01:05:22;;;;;;;8.65;6.72;;;11.80;99.90;;;;;;5074953;28;20028;-67
2021/08/30 01:08:11;;;;;;;13.00;6.53;;;11.80;99.90;;;;;;5092997;28;20024;-66
2021/08/30 01:10:47;;;;;;;10.23;7.55;;;11.80;99.90;;;;;;5093084;28;20070;-67
2021/08/30 01:13:26;;;;;;;17.80;8.20;;;11.70;99.90;;;;;;5093071;28;20020;-67
2021/08/30 01:15:53;;;;;;;15.50;8.93;;;;;;;;;;5093092;28;20051;-66
2021/08/30 01:18:24;;;;;;;11.90;8.27;;;;;;;;;;5092965;28;20023;-66
2021/08/30 01:21:17;;;;;;;14.40;8.23;;;11.70;99.90;;;;;;5077551;28;20020;-66
2021/08/30 01:23:49;;;;;;;16.83;9.77;;;11.70;99.90;;;;;;5078924;28;20138;-67
2021/08/30 01:26:19;;;;;;;15.93;9.13;;;11.70;99.90;;;;;;5097036;28;20028;-66
2021/08/30 01:29:01;;;;;;;15.67;9.50;;;11.70;99.90;;;;;;5096868;28;20040;-67
2021/08/30 01:31:38;;;;;;;17.88;9.70;;;11.70;99.90;;;;;;5096914;28;20032;-66
2021/08/30 01:34:04;;;;;;;14.07;9.13;;;11.70;99.90;;;;;;5096897;28;20036;-66
2021/08/30 01:36:32;;;;;;;12.48;8.32;;;11.70;99.90;;;;;;5096815;28;20036;-66
2021/08/30 01:38:59;;;;;;;15.15;8.98;;;11.70;99.90;;;;;;5078505;28;20027;-67
2021/08/30 01:41:27;;;;;;;17.98;9.65;;;11.60;99.90;;;;;;5078525;28;20028;-67
2021/08/30 01:43:55;;;;;;;13.02;8.57;;;11.60;99.90;;;;;;5078467;28;20035;-67
2021/08/30 01:46:22;;;;;;;15.10;10.27;;;11.60;99.90;;;;;;5096642;28;20081;-66
2021/08/30 01:48:50;;;;;;;16.52;10.35;;;11.60;99.90;;;;;;5078218;28;20384;-66
2021/08/30 01:51:18;;;;;;;16.15;10.35;;;;;;;;;;5077991;28;20035;-66
2021/08/30 01:53:46;;;;;;;12.18;9.27;;;;;;;;;;5096552;28;20455;-65
2021/08/30 01:56:13;;;;;;;14.55;9.40;;;;;;;;;;5096180;28;20469;-65
2021/08/30 02:01:25;;;;;;;16.45;9.35;;;;;;;;;;5095958;28;20823;-67
2021/08/30 02:03:51;;;;;;;17.33;10.10;;;;;;;;;;5096029;28;20028;-67
2021/08/30 02:06:17;;;;;;;14.82;9.38;;;11.50;99.90;;;;;;5078007;28;20461;-67
2021/08/30 02:08:43;;;;;;;15.13;8.27;;;11.50;99.90;;;;;;5077597;28;20032;-67
2021/08/30 02:11:13;;;;;;;13.45;8.50;;;11.50;99.90;;;;;;5077900;28;20028;-67
2021/08/30 02:13:39;;;;;;;11.73;7.78;;;11.50;99.90;;;;;;5096181;28;20024;-67
2021/08/30 02:16:06;;;;;;;15.35;7.47;;;;;;;;;;5077880;28;20024;-67
2021/08/30 02:18:41;;;;;;;11.68;8.45;;;;;;;;;;5077548;28;20028;-69
2021/08/30 02:21:13;;;;;;;13.43;7.90;;;11.30;99.90;;;;;;5096264;28;20113;-67
2021/08/30 02:23:39;;;;;;;;;;;;;;;;;;5096399;28;20035;-68
2021/08/30 02:26:11;;;;;;;14.50;8.77;;;11.30;99.90;;;;;;5095908;28;19908;-68
2021/08/30 02:28:40;;;;;;;16.65;10.88;;;11.50;99.90;;;;;;5095766;28;20125;-68
2021/08/30 02:31:07;;;;;;;18.55;11.98;;;11.40;99.90;;;;;;5095123;28;20368;-68
2021/08/30 02:33:34;;;;;;;18.17;10.75;;;11.40;99.90;;;;;;5096003;28;20126;-67
2021/08/30 02:36:04;;;;;;;22.92;12.07;;;11.50;99.90;;;;;;5077479;28;20376;-65
2021/08/30 02:38:31;;;;;;;16.65;10.95;;;;;;;;;;5095700;28;20028;-66
2021/08/30 02:40:57;;;;;;;25.02;11.48;;;;;;;;;;5095565;28;20012;-66
2021/08/30 02:43:24;;;;;;;18.60;11.18;;;;;;;;;;5095618;28;20031;-66
2021/08/30 02:45:50;;;;;;;23.33;11.00;;;;;;;;;;5095151;28;20024;-66
2021/08/30 02:48:19;;;;;;;21.98;12.30;;;;;;;;;;5095369;28;20046;-66
2021/08/30 02:50:46;;;;;;;20.73;12.63;;;;;;;;;;5095382;28;20484;-66
2021/08/30 02:53:12;;;;;;;23.30;13.95;;;;;;;;;;5077106;28;20112;-66
2021/08/30 02:55:38;;;;;;;28.45;13.45;;;;;;;;;;5095320;28;20086;-66
2021/08/30 02:58:05;;;;;;;20.90;12.23;;;;;;;;;;5094974;28;20028;-65
2021/08/30 03:00:33;;;;;;;21.13;12.98;;;11.30;99.90;;;;;;5076392;28;20069;-66
2021/08/30 03:03:00;;;;;;;23.08;12.80;;;11.20;99.90;;;;;;5095210;28;20016;-66
2021/08/30 03:05:27;;;;;;;20.90;12.52;;;11.30;99.90;;;;;;5076859;28;20028;-67
2021/08/30 03:07:53;;;;;;;37.60;12.75;;;11.30;99.90;;;;;;5094993;28;20032;-67
2021/08/30 03:10:19;;;;;;;17.55;10.82;;;11.20;99.90;;;;;;5076791;28;20047;-67
2021/08/30 03:12:47;;;;;;;18.90;11.73;;;11.20;99.90;;;;;;5095017;28;20075;-68
2021/08/30 03:15:18;;;;;;;22.65;13.25;;;11.20;99.90;;;;;;5094914;28;20107;-69
2021/08/30 03:17:45;;;;;;;31.92;12.75;;;11.20;99.90;;;;;;5094934;28;20040;-68
2021/08/30 03:20:20;;;;;;;23.05;13.38;;;11.20;99.90;;;;;;5095059;28;20123;-67
2021/08/30 03:22:47;;;;;;;20.95;12.45;;;11.10;99.90;;;;;;5095122;28;20413;-69
2021/08/30 03:25:15;;;;;;;23.58;14.35;;;11.10;99.90;;;;;;5076496;28;20434;-70
2021/08/30 03:27:46;;;;;;;23.13;12.75;;;11.10;99.90;;;;;;5094622;28;20032;-70
2021/08/30 03:30:15;;;;;;;25.77;14.18;;;11.10;99.90;;;;;;5094635;28;20129;-69
2021/08/30 03:32:42;;;;;;;28.60;12.63;;;11.10;99.90;;;;;;5094860;28;20024;-69
2021/08/30 03:35:11;;;;;;;32.00;13.70;;;11.10;99.90;;;;;;5094573;28;20035;-69
2021/08/30 03:37:39;;;;;;;22.60;12.40;;;11.10;99.90;;;;;;5094481;28;20028;-69
2021/08/30 03:40:06;;;;;;;19.65;12.05;;;11.00;99.90;;;;;;5094264;28;20115;-70
2021/08/30 03:42:33;;;;;;;28.65;14.20;;;10.90;99.90;;;;;;5075878;28;20065;-69
2021/08/30 03:45:00;;;;;;;26.05;14.25;;;10.90;99.90;;;;;;5075522;28;20025;-70
2021/08/30 03:47:26;;;;;;;30.25;15.90;;;10.80;99.90;;;;;;5075926;28;20071;-70
2021/08/30 03:49:54;;;;;;;27.70;16.23;;;10.80;99.90;;;;;;5094466;28;20067;-70
2021/08/30 03:52:20;;;;;;;32.83;16.75;;;10.80;99.90;;;;;;5093895;28;20377;-70
2021/08/30 03:54:46;;;;;;;31.20;16.17;;;;;;;;;;5094093;28;20021;-69
2021/08/30 03:57:14;;;;;;;26.38;15.30;;;10.80;99.90;;;;;;5094407;28;20024;-69
2021/08/30 03:59:43;;;;;;;25.58;14.85;;;10.80;99.90;;;;;;5075777;28;20468;-70
2021/08/30 04:02:11;;;;;;;26.80;15.10;;;10.80;99.90;;;;;;5075271;28;20467;-70
2021/08/30 04:04:41;;;;;;;24.98;14.98;;;10.80;99.90;;;;;;5075550;28;20028;-66
2021/08/30 04:07:08;;;;;;;24.77;14.63;;;10.80;99.90;;;;;;5093858;28;20169;-66
2021/08/30 04:09:36;;;;;;;23.88;13.88;;;10.80;99.90;;;;;;5075671;28;20461;-67
2021/08/30 04:12:03;;;;;;;23.05;14.98;;;10.80;99.90;;;;;;5075661;28;20480;-68
2021/08/30 04:14:30;;;;;;;24.67;15.15;;;10.80;99.90;;;;;;5075600;28;20499;-68
2021/08/30 04:16:56;;;;;;;18.50;13.00;;;10.80;99.90;;;;;;5075566;28;20032;-67
2021/08/30 04:19:22;;;;;;;20.98;12.98;;;10.80;99.90;;;;;;5093730;28;20027;-66
2021/08/30 04:21:48;;;;;;;19.45;13.07;;;10.80;99.90;;;;;;5093642;28;20020;-67
2021/08/30 04:24:13;;;;;;;20.40;13.63;;;10.80;99.90;;;;;;5093688;28;20078;-66
2021/08/30 04:26:39;;;;;;;25.23;14.27;;;10.90;99.90;;;;;;5093522;28;20025;-67
2021/08/30 04:29:06;;;;;;;25.65;13.43;;;;;;;;;;5075376;28;20031;-67
2021/08/30 04:31:33;;;;;;;21.77;13.43;;;;;;;;;;5093558;28;20380;-67
2021/08/30 04:34:07;;;;;;;26.77;13.95;;;11.40;99.90;;;;;;5093560;28;20021;-67
2021/08/30 04:36:33;;;;;;;23.80;13.43;;;11.40;99.90;;;;;;5093498;28;20066;-67
2021/08/30 04:38:59;;;;;;;28.20;13.57;;;11.50;99.90;;;;;;5093477;28;20059;-66
2021/08/30 04:41:25;;;;;;;21.50;13.23;;;11.60;99.90;;;;;;5093353;28;20370;-66
2021/08/30 04:43:52;;;;;;;15.57;12.10;;;11.70;99.90;;;;;;5093358;28;20024;-66
2021/08/30 04:46:18;;;;;;;23.80;12.77;;;11.80;99.90;;;;;;5075114;28;20035;-66
2021/08/30 04:48:44;;;;;;;18.80;11.85;;;11.90;99.90;;;;;;5093162;28;20038;-66
2021/08/30 04:51:11;;;;;;;18.65;10.85;;;11.90;99.90;;;;;;5093246;28;20024;-66
2021/08/30 04:53:37;;;;;;;15.85;10.48;;;11.90;99.90;;;;;;5093260;28;20028;-66
2021/08/30 04:56:03;;;;;;;17.00;10.43;;;11.90;99.90;;;;;;5074709;28;20050;-66
2021/08/30 04:58:29;;;;;;;15.48;10.52;;;12.00;99.90;;;;;;5093157;28;20455;-66
2021/08/30 05:00:55;;;;;;;15.15;11.18;;;12.00;99.90;;;;;;5092747;28;20083;-66
2021/08/30 05:03:21;;;;;;;18.45;10.48;;;12.10;99.90;;;;;;5093144;28;20028;-66
2021/08/30 05:05:47;;;;;;;16.02;10.95;;;12.10;99.90;;;;;;5093144;28;20513;-66
2021/08/30 05:08:13;;;;;;;13.48;9.93;;;12.10;99.90;;;;;;5093101;28;20124;-66
2021/08/30 05:10:38;;;;;;;15.30;10.02;;;12.20;99.90;;;;;;5093035;28;20092;-67
2021/08/30 05:13:04;;;;;;;15.18;10.50;;;12.20;99.90;;;;;;5093000;28;20024;-68
2021/08/30 05:15:30;;;;;;;19.35;10.45;;;12.30;99.90;;;;;;5074801;28;20178;-67
2021/08/30 05:17:56;;;;;;;13.77;10.45;;;12.40;99.90;;;;;;5093258;28;20028;-70
2021/08/30 05:20:22;;;;;;;15.93;10.07;;;12.40;99.90;;;;;;5092924;28;20055;-69
2021/08/30 05:22:48;;;;;;;16.27;9.57;;;12.50;99.90;;;;;;5092966;28;20032;-68
2021/08/30 05:25:14;;;;;;;16.52;9.73;;;12.60;99.90;;;;;;5092979;28;20103;-68
2021/08/30 05:27:41;;;;;;;13.25;8.43;;;12.60;99.90;;;;;;5092852;28;20039;-67
2021/08/30 05:33:29;;;;;;;11.68;8.90;;;12.80;99.90;;;;;;5093159;28;20427;-67
2021/08/30 05:35:55;;;;;;;12.07;8.43;;;12.90;99.90;;;;;;5092535;28;20097;-67
2021/08/30 05:38:21;;;;;;;16.13;10.00;;;12.90;99.90;;;;;;5074529;28;20031;-67
2021/08/30 05:40:47;;;;;;;13.43;8.60;;;13.00;99.90;;;;;;5091797;28;20464;-67
2021/08/30 05:43:12;;;;;;;15.32;8.80;;;13.00;99.90;;;;;;5090720;28;20077;-67
2021/08/30 05:45:38;;;;;;;13.88;8.55;;;13.10;99.90;;;;;;5090957;28;20020;-68
2021/08/30 05:48:05;;;;;;;23.90;8.90;;;13.20;99.90;;;;;;5090739;28;20032;-67
2021/08/30 05:50:30;;;;;;;12.82;7.65;;;13.30;99.90;;;;;;5090892;28;20452;-67
2021/08/30 05:52:56;;;;;;;15.32;7.32;;;13.40;99.90;;;;;;5091120;28;20024;-67
2021/08/30 05:55:23;;;;;;;14.60;8.45;;;13.50;99.90;;;;;;5092364;28;20157;-70
2021/08/30 05:57:49;;;;;;;12.95;7.53;;;13.60;99.90;;;;;;5092440;28;20064;-70
2021/08/30 06:00:15;;;;;;;12.02;7.25;;;13.70;99.90;;;;;;5074111;28;20032;-72
2021/08/30 06:02:41;;;;;;;17.25;8.52;;;13.70;99.90;;;;;;5091747;28;20054;-71
2021/08/30 06:05:07;;;;;;;12.82;7.00;;;13.90;99.90;;;;;;5092131;28;20024;-70
2021/08/30 06:07:33;;;;;;;7.57;5.90;;;13.90;99.90;;;;;;5094692;28;20098;-71
2021/08/30 06:09:59;;;;;;;9.88;6.05;;;14.00;99.90;;;;;;5077708;28;20037;-72
2021/08/30 06:12:25;;;;;;;9.13;5.45;;;14.10;99.90;;;;;;5077519;28;20032;-70
2021/08/30 06:14:51;;;;;;;8.98;5.88;;;;;;;;;;5095624;28;20089;-70
2021/08/30 06:17:17;;;;;;;13.18;5.85;;;14.20;99.90;;;;;;5095975;28;20031;-71
2021/08/30 06:19:43;;;;;;;6.90;5.03;;;14.40;99.90;;;;;;5095938;28;20030;-71
2021/08/30 06:22:10;;;;;;;7.25;5.15;;;;;;;;;;5095842;28;20059;-71
2021/08/30 06:24:40;;;;;;;5.78;5.10;;;;;;;;;;5077693;28;20024;-71
2021/08/30 06:27:07;;;;;;;12.60;5.47;;;;;;;;;;5075730;28;20060;-71
2021/08/30 06:29:33;;;;;;;9.27;5.40;;;14.60;99.90;;;;;;5093820;28;20073;-71
2021/08/30 06:31:59;;;;;;;10.00;5.72;;;14.90;99.90;;;;;;5093853;28;20436;-71
2021/08/30 06:34:26;;;;;;;10.23;5.80;;;;;;;;;;5094458;28;20043;-71
2021/08/30 06:36:52;;;;;;;6.97;4.57;;;15.00;99.90;;;;;;5094671;28;20106;-71
2021/08/30 06:39:18;;;;;;;5.60;4.53;;;15.00;99.90;;;;;;5095188;28;20021;-71
2021/08/30 06:41:44;;;;;;;7.13;3.83;;;15.10;99.90;;;;;;5077306;28;20032;-71
2021/08/30 06:44:10;;;;;;;6.18;3.40;;;15.20;99.90;;;;;;5095711;28;20396;-71
2021/08/30 06:46:36;;;;;;;6.22;3.58;;;15.20;99.90;;;;;;5077148;28;20445;-71
2021/08/30 06:49:02;;;;;;;5.13;3.78;;;15.30;99.90;;;;;;5091618;28;20043;-71
2021/08/30 06:51:28;;;;;;;5.50;3.80;;;15.40;99.90;;;;;;5072856;28;20021;-71
2021/08/30 06:53:54;;;;;;;6.20;4.00;;;15.50;99.90;;;;;;5092559;28;20055;-70
2021/08/30 06:56:20;;;;;;;5.70;4.18;;;;;;;;;;5095184;28;20113;-71
2021/08/30 06:58:46;;;;;;;9.65;3.90;;;15.60;99.90;;;;;;5076567;28;20035;-69
2021/08/30 07:01:12;;;;;;;8.05;3.58;;;15.80;99.90;;;;;;5076468;28;20047;-70
2021/08/30 07:03:38;;;;;;;5.72;3.83;;;15.90;99.90;;;;;;5094172;28;20020;-71
2021/08/30 07:06:04;;;;;;;4.45;3.33;;;16.00;99.90;;;;;;5094902;28;20031;-68
2021/08/30 07:08:30;;;;;;;6.72;3.70;;;16.00;99.90;;;;;;5094781;28;20044;-69
2021/08/30 07:10:56;;;;;;;7.88;3.83;;;16.10;99.90;;;;;;5094704;28;20434;-70
2021/08/30 07:13:22;;;;;;;13.68;4.25;;;16.20;99.90;;;;;;5095036;28;20028;-69
2021/08/30 07:15:48;;;;;;;4.13;3.42;;;16.20;99.90;;;;;;5073101;28;20487;-70
2021/08/30 07:18:15;;;;;;;4.15;2.58;;;16.30;99.90;;;;;;5090362;28;20020;-71
2021/08/30 07:20:41;;;;;;;5.82;3.00;;;16.40;99.90;;;;;;5083530;28;20012;-70
2021/08/30 07:23:08;;;;;;;7.22;3.72;;;16.50;99.90;;;;;;5082567;28;20431;-71
2021/08/30 07:25:34;;;;;;;5.40;3.17;;;16.60;99.90;;;;;;5085882;28;20020;-68
2021/08/30 07:28:00;;;;;;;4.65;3.13;;;16.70;99.90;;;;;;5073920;28;20473;-71
2021/08/30 07:30:26;;;;;;;5.85;3.13;;;16.80;99.90;;;;;;5074250;28;20024;-69
2021/08/30 07:32:52;;;;;;;4.80;2.80;;;16.90;99.90;;;;;;5074109;28;20054;-73
2021/08/30 07:35:18;;;;;;;3.88;3.10;;;17.00;99.90;;;;;;5073976;28;20111;-70
2021/08/30 07:37:44;;;;;;;5.10;3.42;;;17.10;99.90;;;;;;5073831;28;20027;-73
2021/08/30 07:40:11;;;;;;;8.43;5.43;;;17.30;99.90;;;;;;5073759;28;20033;-71
2021/08/30 07:42:37;;;;;;;4.70;3.05;;;17.40;99.90;;;;;;5074106;28;20024;-71
2021/08/30 07:45:03;;;;;;;6.90;3.47;;;17.50;99.90;;;;;;5055792;28;20480;-73
2021/08/30 07:47:28;;;;;;;2.72;2.53;;;17.60;99.90;;;;;;5055572;28;20047;-73
2021/08/30 07:49:55;;;;;;;6.55;2.80;;;17.70;99.90;;;;;;5073677;28;20033;-73
2021/08/30 07:52:21;;;;;;;5.45;3.08;;;17.80;99.90;;;;;;5073684;28;20035;-68
2021/08/30 07:54:48;;;;;;;6.85;2.95;;;17.80;99.90;;;;;;5072032;28;20038;-70
2021/08/30 07:57:14;;;;;;;4.90;3.03;;;17.90;99.90;;;;;;5088828;28;20032;-70
2021/08/30 07:59:40;;;;;;;6.05;3.63;;;18.00;99.90;;;;;;5073413;28;20021;-70
2021/08/30 08:02:06;;;;;;;6.28;3.72;;;18.10;99.90;;;;;;5073289;28;20044;-70
2021/08/30 08:04:32;;;;;;;3.95;3.47;;;18.30;99.90;;;;;;5073567;28;20039;-69
2021/08/30 08:06:58;;;;;;;5.78;4.20;;;18.40;99.90;;;;;;5073451;28;20028;-72
2021/08/30 08:09:24;;;;;;;3.83;2.97;;;18.60;99.90;;;;;;5055208;28;20108;-71
2021/08/30 08:11:49;;;;;;;3.22;2.70;;;18.70;99.90;;;;;;5073003;28;20021;-76
2021/08/30 08:14:16;;;;;;;4.18;3.25;;;18.80;99.90;;;;;;5055199;28;20029;-74
2021/08/30 08:16:42;;;;;;;6.45;3.85;;;18.90;99.90;;;;;;5055330;28;20035;-73
2021/08/30 08:19:08;;;;;;;6.10;3.70;;;19.00;98.90;;;;;;5055215;28;20427;-76
2021/08/30 08:21:35;;;;;;;6.43;4.10;;;19.10;97.90;;;;;;5054949;28;20032;-70
2021/08/30 08:24:03;;;;;;;4.82;3.08;;;19.20;97.30;;;;;;5055136;28;20074;-74
2021/08/30 08:26:29;;;;;;;5.72;3.22;;;;;;;;;;5073131;28;20020;-71
2021/08/30 08:28:55;;;;;;;4.20;3.13;;;19.50;95.70;;;;;;5072709;28;20059;-74
2021/08/30 08:31:22;;;;;;;3.35;2.95;;;19.60;95.80;;;;;;5072723;28;20453;-72
2021/08/30 08:33:49;;;;;;;3.05;2.83;;;19.80;96.10;;;;;;5054720;28;20029;-71
2021/08/30 08:36:16;;;;;;;5.53;3.00;;;;;;;;;;5073090;28;20124;-72
2021/08/30 08:38:42;;;;;;;4.03;3.20;;;;;;;;;;5072946;28;20025;-70
2021/08/30 08:41:09;;;;;;;3.85;3.20;;;;;;;;;;5073030;28;20042;-70
2021/08/30 08:43:35;;;;;;;3.40;2.95;;;;;;;;;;5054997;28;20063;-71
2021/08/30 08:46:02;;;;;;;2.83;2.53;;;;;;;;;;5054903;28;20017;-71
2021/08/30 08:48:28;;;;;;;2.72;2.53;;;;;;;;;;5072846;28;20135;-71
2021/08/30 08:50:55;;;;;;;3.35;2.70;;;;;;;;;;5054767;28;20465;-71
2021/08/30 08:53:21;;;;;;;3.17;2.70;;;20.00;97.80;;;;;;5054746;28;20530;-76
2021/08/30 08:55:47;;;;;;;5.30;2.95;;;;;;;;;;5072673;28;20044;-73
2021/08/30 08:58:14;;;;;;;6.32;2.80;;;;;;;;;;5054883;28;20384;-75
2021/08/30 09:00:41;;;;;;;3.70;2.95;;;;;;;;;;5072736;28;20029;-73
2021/08/30 09:03:18;;;;;;;4.57;3.65;;;;;;;;;;5072806;28;20037;-73
2021/08/30 09:05:44;;;;;;;4.55;2.97;;;20.80;93.60;;;;;;5072718;28;20111;-74
2021/08/30 09:08:36;;;;;;;2.97;2.38;;;20.90;93.60;;;;;;5072461;28;20095;-73
2021/08/30 09:11:02;;;;;;;;;;;21.10;91.10;;;;;;5072659;28;20029;-72
2021/08/30 09:13:30;;;;;;;3.00;2.80;;;21.40;92.40;;;;;;5072584;28;19912;-72
2021/08/30 09:15:59;;;;;;;5.13;3.10;;;21.50;90.90;;;;;;5054174;28;20032;-71
2021/08/30 09:18:28;;;;;;;3.72;2.90;;;21.60;91.60;;;;;;5054673;28;20496;-72
2021/08/30 09:20:55;;;;;;;5.03;2.95;;;21.80;88.10;;;;;;5072527;28;20025;-72
2021/08/30 09:23:21;;;;;;;8.63;3.90;;;22.00;87.90;;;;;;5072631;28;20028;-71
2021/08/30 09:25:47;;;;;;;3.22;2.92;;;22.30;90.40;;;;;;5054210;28;20388;-73
2021/08/30 09:28:12;;;;;;;2.92;2.58;;;22.60;90.10;;;;;;5054305;28;20071;-73
2021/08/30 09:30:38;;;;;;;2.38;2.20;;;22.70;86.90;;;;;;5054496;28;20029;-73
2021/08/30 09:33:04;;;;;;;5.00;3.22;;;22.80;83.60;;;;;;5072497;28;20372;-73
2021/08/30 09:35:30;;;;;;;2.38;2.17;;;23.00;84.10;;;;;;5072676;28;20028;-75
2021/08/30 09:37:56;;;;;;;4.93;2.03;;;22.30;86.00;;;;;;5074242;28;20028;-73
2021/08/30 09:40:26;;;;;;;6.07;2.30;;;22.60;84.90;;;;;;5074450;28;20474;-73
2021/08/30 09:42:56;;;;;;;3.92;2.13;;;22.90;86.10;;;;;;5094482;28;20063;-71
2021/08/30 09:45:27;;;;;;;2.53;2.33;;;23.10;83.40;;;;;;5076053;28;20052;-74
2021/08/30 09:47:58;;;;;;;2.45;1.80;;;23.20;85.50;;;;;;5076251;28;20024;-73
2021/08/30 09:50:42;;;;;;;5.40;2.40;;;23.30;82.90;;;;;;5076272;28;20086;-71
2021/08/30 09:53:09;;;;;;;2.90;2.70;;;23.30;83.40;;;;;;5076233;28;20035;-72
2021/08/30 09:55:36;;;;;;;3.13;1.80;;;23.70;85.30;;;;;;5076165;28;20024;-72
2021/08/30 09:58:05;;;;;;;2.00;1.90;;;23.80;82.80;;;;;;5058223;28;20028;-73
2021/08/30 10:00:33;;;;;;;1.75;1.65;;;23.70;80.90;;;;;;5057928;28;20111;-71
2021/08/30 10:03:00;;;;;;;2.42;2.05;;;23.60;78.20;;;;;;5075529;28;20408;-74
2021/08/30 10:05:30;;;;;;;1.52;1.42;;;23.80;79.50;;;;;;5076016;28;20032;-73
2021/08/30 10:08:00;;;;;;;1.98;1.88;;;24.10;74.90;;;;;;5075908;28;20036;-74
2021/08/30 10:10:26;;;;;;;2.08;1.98;;;24.20;79.50;;;;;;5075678;28;20556;-72
2021/08/30 10:12:52;;;;;;;2.53;1.35;;;24.20;74.20;;;;;;5074807;28;20150;-71
2021/08/30 10:15:21;;;;;;;2.08;1.92;;;24.10;76.40;;;;;;5057741;28;20039;-72
2021/08/30 10:17:48;;;;;;;2.53;1.70;;;23.90;76.30;;;;;;5058040;28;20373;-73
2021/08/30 10:20:19;;;;;;;1.60;1.50;;;23.50;77.20;;;;;;5075818;28;20086;-76
2021/08/30 10:22:59;;;;;;;1.80;1.70;;;24.10;78.30;;;;;;5057790;28;20028;-75
2021/08/30 10:25:25;;;;;;;1.50;1.40;;;;;;;;;;5057663;28;20483;-74
2021/08/30 10:28:03;;;;;;;2.10;2.00;;;25.10;70.40;;;;;;5057450;28;20106;-75
2021/08/30 10:30:32;;;;;;;7.80;2.40;;;25.40;72.10;;;;;;5057396;28;20051;-72
2021/08/30 10:33:01;;;;;;;4.00;1.55;;;24.70;69.80;;;;;;5075297;28;20017;-71
2021/08/30 10:35:31;;;;;;;1.70;1.60;;;25.10;74.30;;;;;;5075317;28;20028;-72
2021/08/30 10:38:02;;;;;;;2.63;2.13;;;26.80;70.40;;;;;;5075247;28;20020;-73
2021/08/30 10:40:29;;;;;;;;;;;27.70;70.60;;;;;;5075793;28;20035;-72
2021/08/30 10:43:04;;;;;;;1.70;1.60;;;27.30;65.60;;;;;;5075329;28;19915;-72
2021/08/30 10:45:57;;;;;;;6.90;2.30;;;28.20;66.80;;;;;;5075288;28;20064;-72
2021/08/30 10:48:40;;;;;;;1.20;1.10;;;29.00;61.50;;;;;;5057207;28;20064;-72
2021/08/30 10:51:33;;;;;;;3.95;2.00;;;29.60;59.80;;;;;;5075182;28;20025;-73
2021/08/30 10:54:07;;;;;;;1.77;1.60;;;30.40;68.10;;;;;;5052403;28;20060;-71
2021/08/30 10:56:34;;;;;;;2.28;1.70;;;31.30;57.70;;;;;;5076377;28;20016;-73
2021/08/30 10:59:07;;;;;;;1.50;1.40;;;31.40;55.20;;;;;;5075239;28;20060;-73
2021/08/30 11:01:40;;;;;;;1.52;1.42;;;31.00;53.20;;;;;;5075152;28;20045;-70
2021/08/30 11:04:09;;;;;;;1.30;1.20;;;28.30;55.80;;;;;;5058333;28;20080;-72
2021/08/30 11:06:37;;;;;;;4.90;1.80;;;27.50;59.60;;;;;;5058394;28;20096;-72
2021/08/30 11:09:03;;;;;;;1.75;1.23;;;26.60;59.50;;;;;;5075996;28;20082;-72
2021/08/30 11:11:29;;;;;;;1.38;1.38;;;26.90;61.80;;;;;;5076115;28;20032;-72
2021/08/30 11:14:09;;;;;;;1.58;1.48;;;26.80;60.30;;;;;;5058269;28;20039;-71
2021/08/30 11:16:37;;;;;;;1.30;1.30;;;29.00;59.10;;;;;;5076072;28;20399;-70
2021/08/30 11:19:07;;;;;;;1.33;1.23;;;28.70;57.40;;;;;;5076790;28;20032;-71
2021/08/30 11:21:54;;;;;;;1.75;1.40;;;26.40;59.10;;;;;;5076587;28;20524;-72
2021/08/30 11:24:26;;;;;;;1.25;1.15;;;27.70;60.40;;;;;;5058089;28;20461;-70
2021/08/30 11:26:55;;;;;;;3.10;1.10;;;30.20;56.50;;;;;;5057995;28;20036;-71
2021/08/30 11:29:21;;;;;;;2.45;1.80;;;31.40;54.50;;;;;;5074949;28;20031;-72
2021/08/30 11:31:47;;;;;;;2.35;1.38;;;31.80;51.10;;;;;;5075522;28;20537;-71
2021/08/30 11:34:46;;;;;;;3.03;1.23;;;32.00;49.40;;;;;;5075535;28;20025;-72
2021/08/30 11:37:14;;;;;;;2.13;1.65;;;33.30;49.60;;;;;;4974381;28;20162;-71
2021/08/30 11:39:43;;;;;;;1.83;1.20;;;33.00;49.70;;;;;;4973249;28;20606;-72
2021/08/30 11:42:11;;;;;;;1.55;1.15;;;34.00;49.20;;;;;;4957079;28;20031;-72
2021/08/30 11:44:38;;;;;;;1.30;1.20;;;34.50;47.50;;;;;;4957197;28;20494;-71
2021/08/30 11:47:08;;;;;;;2.95;1.10;;;34.70;48.20;;;;;;4973769;28;20038;-71
2021/08/30 11:49:48;;;;;;;1.30;1.20;;;34.00;45.40;;;;;;4956764;28;20059;-72
2021/08/30 11:52:18;;;;;;;1.10;1.10;;;35.20;46.80;;;;;;4957551;28;20117;-71
2021/08/30 11:55:12;;;;;;;2.05;1.42;;;31.30;49.90;;;;;;4973003;28;20038;-72
2021/08/30 11:57:49;;;;;;;2.35;1.33;;;32.70;48.70;;;;;;4956673;28;20034;-73
2021/08/30 12:00:24;;;;;;;2.08;1.33;;;34.20;48.00;;;;;;4959081;28;20057;-71
2021/08/30 12:02:51;;;;;;;1.00;1.00;;;35.80;46.30;;;;;;5093209;28;20076;-71
2021/08/30 12:05:17;;;;;;;4.03;1.25;;;32.00;47.20;;;;;;5074894;28;20027;-72
2021/08/30 12:07:43;;;;;;;1.15;1.15;;;32.80;47.60;;;;;;5072258;28;20365;-71
2021/08/30 12:10:12;;;;;;;1.33;1.23;;;29.90;49.30;;;;;;5086445;28;20031;-70
2021/08/30 12:15:31;;;;;;;3.45;1.20;;;27.40;57.50;;;;;;5073197;28;20036;-72
2021/08/30 12:17:59;;;;;;;1.25;1.13;;;26.90;56.80;;;;;;5055500;28;20469;-72
2021/08/30 12:20:42;;;;;;;1.33;1.23;;;27.30;57.50;;;;;;5073296;28;20033;-70
2021/08/30 12:23:11;;;;;;;1.48;1.10;;;31.80;52.20;;;;;;5072995;28;20108;-70
2021/08/30 12:25:39;;;;;;;1.10;1.10;;;33.90;48.20;;;;;;5073317;28;20091;-71
2021/08/30 12:28:07;;;;;;;1.10;1.10;;;35.50;46.70;;;;;;5073313;28;20040;-71
2021/08/30 12:30:37;;;;;;;0.85;0.85;;;32.70;46.40;;;;;;5055130;28;20050;-71
2021/08/30 12:33:09;;;;;;;2.92;1.10;;;33.10;47.50;;;;;;5073545;28;20020;-70
2021/08/30 12:35:41;;;;;;;2.60;1.10;;;30.70;48.50;;;;;;5055274;28;20115;-70
2021/08/30 12:38:10;;;;;;;2.63;1.13;;;30.30;52.70;;;;;;5073153;28;20032;-71
2021/08/30 12:40:39;;;;;;;1.63;1.42;;;29.10;51.90;;;;;;5073137;28;20033;-73
2021/08/30 12:43:06;;;;;;;1.35;1.33;;;28.10;54.60;;;;;;5055101;28;20491;-73
2021/08/30 12:45:32;;;;;;;1.75;0.88;;;30.40;53.60;;;;;;5073030;28;20035;-70
2021/08/30 12:47:58;;;;;;;1.30;1.20;;;29.80;52.90;;;;;;5073308;28;20074;-71
2021/08/30 12:50:25;;;;;;;1.20;1.20;;;31.80;51.90;;;;;;5076076;28;20032;-71
2021/08/30 12:52:51;;;;;;;2.78;1.30;;;31.60;47.40;;;;;;5055056;28;20032;-70
2021/08/30 12:55:17;;;;;;;1.67;1.10;;;30.00;50.20;;;;;;5073048;28;20060;-71
2021/08/30 12:57:43;;;;;;;1.40;1.30;;;31.80;51.00;;;;;;5072785;28;20499;-71
2021/08/30 13:00:12;;;;;;;1.10;1.10;;;34.80;46.80;;;;;;5072896;28;20021;-74
2021/08/30 13:02:51;;;;;;;1.20;1.20;;;37.00;45.90;;;;;;5054966;28;20036;-75
2021/08/30 13:05:23;;;;;;;2.97;1.15;;;37.60;43.60;;;;;;5055044;28;20032;-75
2021/08/30 13:07:51;;;;;;;1.20;0.93;;;38.60;42.50;;;;;;5072852;28;20039;-75
2021/08/30 13:10:17;;;;;;;1.13;1.08;;;39.20;42.30;;;;;;5054912;28;20415;-78